Terminal Aerodrome Forecast
Issued by NWS Blacksburg, VA

Home | Current Version | Previous Version | Text Only | Print | Product List | Glossary On
Versions: 1 2 3 4 5 6 7 8 9 10 11 12 13 14 15 16 17 18 19 20 21 22 23 24 25 26 27
000
FTUS41 KRNK 231741
TAFROA
TAF
KROA 231741Z 2318/2418 00000KT P6SM FEW028 BKN040 OVC080
     FM240200 00000KT 6SM -SHRA BR OVC018
     FM240600 VRB03KT 4SM -DZ BR OVC007
     FM241400 08005KT P6SM OVC010
     FM241700 08005KT P6SM -SHRA BKN022=

USA.gov is the U.S. government's official web portal to all federal, state and local government web resources and services.